Time;durP1;ratioP1;P1;durP2;ratioP2;P2;SDS_P1;SDS_P2;PMS_P1;PMS_P2;Temp;Humidity;BMP_temperature;BMP_pressure;BME280_temperature;BME280_humidity;BME280_pressure;Samples;Min_cycle;Max_cycle;Signal;HPM_P1;HPM_P2
2022/03/12 00:03:18;;;;;;;17.48;8.85;;;;;;;10.70;46.74;100459.94;8410064;28;20047;-64
2022/03/12 00:07:19;;;;;;;16.55;9.50;;;;;;;10.70;46.64;100462.63;8408307;28;20119;-64
2022/03/12 00:11:22;;;;;;;19.30;8.65;;;;;;;10.78;46.11;100454.69;8425769;28;20052;-64
2022/03/12 00:15:23;;;;;;;14.18;8.25;;;;;;;10.87;45.89;100459.22;8405800;28;20036;-64
2022/03/12 00:19:23;;;;;;;11.85;7.60;;;;;;;10.95;45.14;100462.03;8415961;28;20454;-64
2022/03/12 00:23:30;;;;;;;13.88;8.82;;;;;;;11.06;44.30;100459.19;8418855;28;20036;-64
2022/03/12 00:27:30;;;;;;;13.75;8.38;;;;;;;11.02;44.57;100468.59;8400385;28;20040;-64
2022/03/12 00:31:33;;;;;;;15.52;8.88;;;;;;;11.03;44.65;100473.00;8407983;28;20040;-64
2022/03/12 00:35:33;;;;;;;22.77;9.43;;;;;;;11.02;44.34;100473.16;8409885;28;20043;-64
2022/03/12 00:39:34;;;;;;;15.27;7.55;;;;;;;11.04;44.51;100472.00;8402948;28;20031;-64
2022/03/12 00:43:34;;;;;;;17.77;7.60;;;;;;;11.02;44.40;100475.84;8402922;27;20418;-64
2022/03/12 00:47:35;;;;;;;15.10;8.23;;;;;;;11.06;44.47;100480.84;8403292;28;20051;-64
2022/03/12 00:51:38;;;;;;;13.65;7.68;;;;;;;10.99;44.17;100487.84;8400709;28;20108;-64
2022/03/12 00:55:38;;;;;;;17.35;7.75;;;;;;;10.98;44.53;100482.56;8405978;28;20489;-64
2022/03/12 00:59:40;;;;;;;15.40;7.38;;;;;;;10.98;44.21;100493.38;8401734;27;20416;-64
2022/03/12 01:03:41;;;;;;;13.52;8.43;;;;;;;10.97;44.51;100487.09;8423649;28;20052;-64
2022/03/12 01:07:42;;;;;;;14.55;7.72;;;;;;;10.91;44.16;100487.69;8417669;28;20028;-64
2022/03/12 01:11:43;;;;;;;15.57;7.80;;;;;;;10.86;44.49;100478.31;8424949;28;20047;-64
2022/03/12 01:15:43;;;;;;;17.83;7.13;;;;;;;10.96;44.36;100487.25;8406489;28;20497;-64
2022/03/12 01:19:44;;;;;;;15.00;7.90;;;;;;;10.89;44.14;100500.47;8420925;28;20066;-64
2022/03/12 01:23:46;;;;;;;12.05;8.00;;;;;;;10.81;44.73;100503.06;8417780;28;20028;-64
2022/03/12 01:27:47;;;;;;;22.55;7.65;;;;;;;10.79;44.30;100506.88;8401582;28;20037;-64
2022/03/12 01:31:47;;;;;;;12.68;7.88;;;;;;;10.74;45.02;100507.31;8425678;28;20127;-64
2022/03/12 01:35:48;;;;;;;12.50;6.97;;;;;;;10.71;44.51;100498.66;8402734;28;20521;-64
2022/03/12 01:39:49;;;;;;;17.17;8.20;;;;;;;10.67;44.88;100500.78;8421557;28;20267;-64
2022/03/12 01:43:50;;;;;;;16.90;7.40;;;;;;;10.65;44.77;100497.38;8406054;28;20032;-64
2022/03/12 01:47:55;;;;;;;14.85;7.10;;;;;;;10.58;45.10;100498.91;8399581;28;20038;-64
2022/03/12 01:51:55;;;;;;;18.05;6.82;;;;;;;10.47;45.59;100499.06;8417009;28;20043;-64
2022/03/12 01:55:56;;;;;;;15.10;7.13;;;;;;;10.45;45.49;100501.03;8415623;27;20075;-64
2022/03/12 01:59:58;;;;;;;16.75;7.95;;;;;;;10.40;45.94;100500.59;8427629;27;20123;-64
2022/03/12 02:04:00;;;;;;;17.85;8.45;;;;;;;10.38;46.20;100510.72;8426983;27;20063;-64
2022/03/12 02:08:01;;;;;;;16.38;7.32;;;;;;;10.31;46.02;100509.53;8428268;27;20361;-64
2022/03/12 02:12:02;;;;;;;14.90;8.07;;;;;;;10.29;46.50;100522.34;8426950;27;20403;-64
2022/03/12 02:16:08;;;;;;;11.65;7.07;;;;;;;10.22;46.81;100515.81;8425596;27;20104;-64
2022/03/12 02:20:09;;;;;;;14.27;7.70;;;;;;;10.15;46.95;100525.44;8407095;28;20039;-64
2022/03/12 02:24:11;;;;;;;15.73;8.35;;;;;;;10.06;47.44;100520.81;8415689;28;20073;-64
2022/03/12 02:28:16;;;;;;;17.17;8.55;;;;;;;10.08;47.69;100529.69;8416452;28;20474;-64
2022/03/12 02:32:17;;;;;;;14.00;7.57;;;;;;;10.08;46.99;100535.09;8418505;28;20071;-64
2022/03/12 02:36:19;;;;;;;13.18;7.50;;;;;;;10.05;47.48;100535.31;8412443;28;20064;-64
2022/03/12 02:40:20;;;;;;;14.68;7.07;;;;;;;10.01;47.24;100534.72;8410457;28;20043;-64
2022/03/12 02:44:25;;;;;;;15.48;8.68;;;;;;;9.97;47.61;100532.44;8423041;28;20496;-64
2022/03/12 02:48:25;;;;;;;14.18;7.60;;;;;;;9.96;48.07;100530.75;8440022;28;20475;-64
2022/03/12 02:52:28;;;;;;;13.10;7.30;;;;;;;9.97;47.84;100532.44;8427380;28;20058;-64
2022/03/12 02:56:29;;;;;;;15.32;8.18;;;;;;;9.91;48.64;100527.59;8425134;28;20122;-64
2022/03/12 03:00:31;;;;;;;14.82;8.07;;;;;;;9.89;48.39;100525.03;8408080;28;20039;-64
2022/03/12 03:04:34;;;;;;;13.57;7.70;;;;;;;9.97;48.51;100527.03;8421730;28;20497;-64
2022/03/12 03:08:36;;;;;;;17.80;8.25;;;;;;;9.96;48.86;100528.03;8423930;28;20036;-64
2022/03/12 03:12:37;;;;;;;16.58;8.07;;;;;;;10.04;48.62;100539.03;8423923;28;20040;-64
2022/03/12 03:16:39;;;;;;;18.08;8.45;;;;;;;10.03;48.98;100531.91;8406460;28;20051;-64
2022/03/12 03:20:40;;;;;;;14.07;8.63;;;;;;;10.06;48.65;100536.19;8423290;28;20028;-64
2022/03/12 03:24:40;;;;;;;16.98;8.43;;;;;;;10.00;48.96;100543.84;8409271;28;20032;-64
2022/03/12 03:28:42;;;;;;;15.32;8.13;;;;;;;9.97;49.65;100538.72;8423907;28;20143;-64
2022/03/12 03:32:42;;;;;;;15.25;7.90;;;;;;;10.01;49.33;100545.53;8427139;28;20174;-64
2022/03/12 03:36:43;;;;;;;17.25;8.65;;;;;;;9.94;50.22;100549.78;8421222;28;20036;-64
2022/03/12 03:40:44;;;;;;;17.17;8.60;;;;;;;9.89;50.61;100549.31;8425437;28;20032;-64
2022/03/12 03:44:45;;;;;;;15.70;7.78;;;;;;;9.86;50.96;100556.84;8425738;28;20089;-64
2022/03/12 03:48:50;;;;;;;16.80;8.70;;;;;;;9.79;51.28;100561.09;8404758;28;20622;-64
2022/03/12 03:52:56;;;;;;;19.98;9.02;;;;;;;9.69;51.89;100563.72;8428233;28;20042;-64
2022/03/12 03:56:56;;;;;;;18.25;8.55;;;;;;;9.66;52.46;100565.84;8424170;28;20044;-64
2022/03/12 04:00:59;;;;;;;21.67;8.80;;;;;;;9.68;51.85;100574.66;8419661;28;20047;-64
2022/03/12 04:04:59;;;;;;;17.45;8.90;;;;;;;9.73;51.59;100577.84;8425280;28;20029;-64
2022/03/12 04:09:00;;;;;;;15.13;8.68;;;;;;;9.69;51.85;100566.44;8424299;28;20042;-64
2022/03/12 04:13:01;;;;;;;14.88;8.20;;;;;;;9.70;51.62;100575.41;8426650;28;20040;-64
2022/03/12 04:17:01;;;;;;;17.52;9.15;;;;;;;9.76;51.58;100577.56;8438857;28;20365;-64
2022/03/12 04:21:04;;;;;;;14.20;8.02;;;;;;;9.74;51.14;100582.22;8417667;28;20033;-64
2022/03/12 04:25:09;;;;;;;16.05;8.55;;;;;;;9.81;50.66;100580.69;8423690;28;20037;-64
2022/03/12 04:29:10;;;;;;;12.82;8.02;;;;;;;9.74;51.32;100587.63;8403973;28;20510;-64
2022/03/12 04:33:11;;;;;;;16.30;8.45;;;;;;;9.72;51.62;100592.28;8404978;28;20456;-64
2022/03/12 04:37:12;;;;;;;16.35;8.90;;;;;;;9.69;51.96;100589.88;8407900;28;20154;-64
2022/03/12 04:41:12;;;;;;;12.88;8.30;;;;;;;9.65;52.39;100596.53;8430454;28;20040;-64
2022/03/12 04:45:17;;;;;;;21.27;8.93;;;;;;;9.65;53.28;100602.78;8428237;28;20059;-64
2022/03/12 04:49:18;;;;;;;;;;;;;;;9.62;53.79;100596.78;8430940;28;20040;-64
2022/03/12 04:53:20;;;;;;;15.38;8.20;;;;;;;9.58;54.02;100596.19;8430757;28;19931;-64
2022/03/12 04:57:21;;;;;;;24.30;9.95;;;;;;;9.53;54.78;100605.69;8427358;28;20040;-64
2022/03/12 05:01:21;;;;;;;17.42;9.10;;;;;;;9.41;56.15;100604.03;8428831;28;20240;-64
2022/03/12 05:05:22;;;;;;;17.92;9.55;;;;;;;9.32;56.82;100612.91;8426435;28;20067;-64
2022/03/12 05:09:22;;;;;;;17.05;9.10;;;;;;;9.32;57.51;100621.88;8426216;28;20044;-64
2022/03/12 05:13:24;;;;;;;17.90;8.85;;;;;;;9.28;58.26;100614.16;8412270;28;20048;-64
2022/03/12 05:17:26;;;;;;;24.52;9.27;;;;;;;9.25;58.51;100627.91;8429639;28;20044;-64
2022/03/12 05:21:26;;;;;;;18.05;8.55;;;;;;;9.22;58.97;100620.06;8429870;28;20046;-64
2022/03/12 05:25:27;;;;;;;16.77;9.20;;;;;;;9.12;59.96;100622.69;8429512;28;20040;-64
2022/03/12 05:29:29;;;;;;;17.63;9.07;;;;;;;9.05;61.24;100617.94;8413847;28;20036;-64
2022/03/12 05:33:29;;;;;;;17.55;8.63;;;;;;;8.98;61.82;100627.53;8430243;28;20036;-64
2022/03/12 05:37:29;;;;;;;17.75;10.23;;;;;;;8.88;63.02;100615.78;8431661;28;20518;-64
2022/03/12 05:41:31;;;;;;;23.40;10.32;;;;;;;8.82;64.61;100616.31;8426015;28;20086;-64
2022/03/12 05:45:32;;;;;;;18.58;8.82;;;;;;;8.90;66.11;100608.41;8428139;28;20036;-64
2022/03/12 05:49:33;;;;;;;16.13;9.50;;;;;;;8.83;68.01;100623.41;8425353;28;20056;-64
2022/03/12 05:53:35;;;;;;;16.95;8.57;;;;;;;8.88;70.01;100630.13;8403586;28;20032;-64
2022/03/12 05:57:36;;;;;;;19.55;9.52;;;;;;;8.87;71.78;100625.72;8424846;28;20072;-64
2022/03/12 06:01:36;;;;;;;16.80;10.13;;;;;;;8.63;73.81;100624.19;8402849;28;20044;-64
2022/03/12 06:05:40;;;;;;;21.98;10.93;;;;;;;8.26;75.13;100638.94;8424735;28;20040;-64
2022/03/12 06:09:40;;;;;;;17.52;9.95;;;;;;;8.15;77.55;100633.50;8416132;28;20081;-64
2022/03/12 06:13:41;;;;;;;20.35;9.90;;;;;;;8.16;80.48;100627.13;8410183;28;20035;-64
2022/03/12 06:17:45;;;;;;;18.17;9.95;;;;;;;8.46;80.87;100625.56;8410852;28;20052;-64
2022/03/12 06:21:47;;;;;;;17.52;10.05;;;;;;;8.59;79.37;100636.19;8430340;28;20040;-64
2022/03/12 06:25:47;;;;;;;22.73;10.10;;;;;;;8.84;79.12;100635.91;8435602;28;20176;-64
2022/03/12 06:29:48;;;;;;;16.52;9.55;;;;;;;9.07;78.82;100627.63;8416756;28;20040;-64
2022/03/12 06:33:49;;;;;;;19.58;9.38;;;;;;;9.39;78.32;100639.22;8417317;28;20047;-64
2022/03/12 06:37:49;;;;;;;18.98;9.30;;;;;;;9.80;77.05;100633.00;8416465;28;20040;-64
2022/03/12 06:41:51;;;;;;;14.75;8.90;;;;;;;9.82;76.59;100633.69;8409762;28;20040;-64
2022/03/12 06:45:53;;;;;;;16.98;9.63;;;;;;;9.68;77.48;100634.06;8394989;28;20044;-64
2022/03/12 06:49:55;;;;;;;19.75;10.00;;;;;;;9.60;78.57;100636.53;8422275;28;20071;-64
2022/03/12 06:53:55;;;;;;;22.23;10.18;;;;;;;9.69;78.80;100638.44;8395366;28;20394;-64
2022/03/12 06:57:57;;;;;;;17.08;9.82;;;;;;;9.91;78.44;100641.00;8414046;27;20044;-64
2022/03/12 07:01:58;;;;;;;18.10;9.45;;;;;;;10.26;77.19;100633.41;8414922;28;20040;-64
2022/03/12 07:05:58;;;;;;;15.60;8.98;;;;;;;10.41;76.88;100637.47;8393050;28;20032;-64
2022/03/12 07:09:58;;;;;;;19.67;9.82;;;;;;;10.57;76.96;100637.78;8415255;28;20404;-64
2022/03/12 07:13:59;;;;;;;24.55;12.30;;;;;;;10.62;77.59;100649.06;8425633;28;20399;-64
2022/03/12 07:17:59;;;;;;;19.73;10.40;;;;;;;10.81;78.68;100653.66;8427025;28;20332;-64
2022/03/12 07:22:00;;;;;;;15.70;9.60;;;;;;;10.97;77.29;100644.00;8415299;28;20436;-64
2022/03/12 07:26:01;;;;;;;16.77;8.98;;;;;;;11.06;76.22;100648.56;8393520;28;20067;-64
2022/03/12 07:30:01;;;;;;;16.45;8.13;;;;;;;11.19;75.73;100659.13;8408413;28;20036;-64
2022/03/12 07:34:01;;;;;;;14.30;8.43;;;;;;;11.29;74.43;100678.94;8402166;28;20496;-64
2022/03/12 07:38:03;;;;;;;18.15;8.70;;;;;;;11.32;73.34;100675.94;8415942;28;20445;-64
2022/03/12 07:42:04;;;;;;;15.57;9.45;;;;;;;11.42;72.50;100688.50;8411441;28;20064;-64
2022/03/12 07:46:05;;;;;;;16.00;8.88;;;;;;;11.50;71.69;100696.75;8414640;28;20036;-64
2022/03/12 07:50:08;;;;;;;19.23;9.60;;;;;;;11.74;71.27;100697.19;8410271;28;20040;-64
2022/03/12 07:54:08;;;;;;;13.63;8.80;;;;;;;11.78;70.54;100714.88;8411898;28;20488;-64
2022/03/12 07:58:09;;;;;;;15.52;9.38;;;;;;;12.23;68.97;100717.78;8414234;28;20066;-64
2022/03/12 08:02:09;;;;;;;15.77;9.65;;;;;;;12.77;67.55;100723.34;8404611;28;20048;-64
2022/03/12 08:06:09;;;;;;;18.65;9.70;;;;;;;12.94;67.45;100735.25;8411255;28;20036;-64
2022/03/12 08:10:10;;;;;;;16.33;8.70;;;;;;;13.15;67.06;100733.19;8405560;28;20056;-64
2022/03/12 08:14:15;;;;;;;13.60;8.43;;;;;;;13.37;67.49;100732.75;8434072;28;20047;-64
2022/03/12 08:18:16;;;;;;;10.48;7.13;;;;;;;13.52;67.42;100731.22;8396350;28;20044;-64
2022/03/12 08:22:17;;;;;;;10.35;6.72;;;;;;;13.64;67.98;100738.13;8425381;27;20051;-65
2022/03/12 08:26:18;;;;;;;14.55;7.53;;;;;;;13.96;68.15;100741.13;8422406;27;20051;-65
2022/03/12 08:30:20;;;;;;;14.48;7.70;;;;;;;14.02;68.13;100740.50;8424610;27;20040;-65
2022/03/12 08:34:20;;;;;;;11.70;7.22;;;;;;;14.16;67.25;100748.13;8416789;27;20548;-65
2022/03/12 08:38:21;;;;;;;10.55;6.07;;;;;;;14.12;67.93;100740.44;8421683;27;20036;-65
2022/03/12 08:42:24;;;;;;;10.60;6.22;;;;;;;14.34;68.17;100765.28;8412948;27;20051;-65
2022/03/12 08:46:24;;;;;;;8.45;5.57;;;;;;;14.50;67.25;100749.06;8417262;27;20497;-65
2022/03/12 08:50:25;;;;;;;8.77;5.82;;;;;;;14.80;66.66;100758.59;8415973;27;20043;-65
2022/03/12 08:54:26;;;;;;;9.05;6.28;;;;;;;15.06;65.75;100764.84;8419002;27;20044;-65
2022/03/12 08:58:29;;;;;;;12.13;6.38;;;;;;;15.19;64.99;100782.44;8412540;28;20063;-65
2022/03/12 09:02:30;;;;;;;10.90;5.13;;;;;;;15.09;66.01;100787.19;8419606;27;20168;-65
2022/03/12 09:06:32;;;;;;;8.80;5.57;;;;;;;15.58;63.81;100783.66;8417317;28;20172;-65
2022/03/12 09:10:32;;;;;;;7.65;4.63;;;;;;;15.29;64.34;100769.56;8415461;28;20120;-65
2022/03/12 09:14:35;;;;;;;7.45;4.60;;;;;;;15.22;63.92;100776.69;8417664;28;20032;-65
2022/03/12 09:18:35;;;;;;;5.88;4.18;;;;;;;14.97;64.66;100776.72;8417455;28;20500;-64
2022/03/12 09:22:36;;;;;;;6.38;4.25;;;;;;;14.73;65.68;100771.16;8373092;28;20378;-64
2022/03/12 09:26:36;;;;;;;7.47;4.07;;;;;;;14.69;65.71;100765.19;8408418;28;20043;-64
2022/03/12 09:30:38;;;;;;;6.25;3.85;;;;;;;15.27;64.42;100773.47;8405917;28;20052;-64
2022/03/12 09:34:39;;;;;;;6.65;3.65;;;;;;;16.56;61.13;100766.38;8398175;28;20119;-64
2022/03/12 09:38:40;;;;;;;5.25;2.90;;;;;;;17.31;58.49;100766.66;8398102;28;20799;-64
2022/03/12 09:42:41;;;;;;;8.88;3.40;;;;;;;18.17;57.12;100767.31;8404536;28;20296;-64
2022/03/12 09:46:41;;;;;;;5.45;3.70;;;;;;;18.50;56.19;100763.31;8422512;28;20044;-64
2022/03/12 09:50:41;;;;;;;5.33;3.10;;;;;;;18.30;56.18;100759.34;8410410;28;20040;-65
2022/03/12 09:54:42;;;;;;;6.00;3.50;;;;;;;18.80;54.43;100756.84;8410511;28;20275;-65
2022/03/12 09:58:43;;;;;;;10.47;3.40;;;;;;;19.71;53.32;100759.13;8391296;28;20401;-65
2022/03/12 10:02:43;;;;;;;5.38;2.92;;;;;;;19.94;52.41;100759.84;8417720;28;20856;-65
2022/03/12 10:06:44;;;;;;;4.43;2.70;;;;;;;19.76;52.33;100751.19;8417848;28;20032;-65
2022/03/12 10:10:44;;;;;;;5.63;2.60;;;;;;;19.22;52.81;100748.78;8399860;28;20070;-65
2022/03/12 10:14:48;;;;;;;5.30;2.78;;;;;;;19.21;52.73;100749.84;8396261;28;20028;-65
2022/03/12 10:18:48;;;;;;;4.32;2.58;;;;;;;19.43;53.17;100753.53;8419327;28;20048;-65
2022/03/12 10:22:49;;;;;;;6.00;2.30;;;;;;;19.08;53.03;100755.16;8423016;27;20093;-65
2022/03/12 10:26:49;;;;;;;4.50;2.42;;;;;;;18.90;53.86;100746.44;8425840;28;20048;-65
2022/03/12 10:30:49;;;;;;;5.30;2.25;;;;;;;19.47;53.14;100741.13;8423114;28;20046;-65
2022/03/12 10:34:52;;;;;;;3.53;1.57;;;;;;;20.15;50.54;100726.91;8419645;28;20101;-65
2022/03/12 10:38:53;;;;;;;4.97;2.13;;;;;;;19.11;52.60;100732.84;8414851;28;20271;-65
2022/03/12 10:42:59;;;;;;;4.82;1.92;;;;;;;18.84;53.38;100735.38;8397562;28;20032;-65
2022/03/12 10:47:00;;;;;;;4.25;2.05;;;;;;;18.65;53.18;100731.31;8419381;28;20502;-65
2022/03/12 10:51:03;;;;;;;5.10;2.08;;;;;;;18.08;54.65;100735.59;8420168;28;20056;-65
2022/03/12 10:55:11;;;;;;;4.75;2.33;;;;;;;18.45;53.71;100732.88;8420892;27;20456;-65
2022/03/12 10:59:16;;;;;;;6.25;3.05;;;;;;;18.43;53.87;100720.44;8412751;28;20074;-65
2022/03/12 11:03:20;;;;;;;2.70;1.95;;;;;;;17.89;54.85;100733.34;8408048;28;20041;-65
2022/03/12 11:07:25;;;;;;;3.97;2.53;;;;;;;17.40;55.33;100737.38;8394804;28;20052;-65
2022/03/12 11:11:29;;;;;;;4.28;2.50;;;;;;;17.12;56.81;100725.22;8396722;28;20562;-65
2022/03/12 11:15:32;;;;;;;6.15;3.10;;;;;;;17.31;56.49;100733.00;8408335;28;20098;-65
2022/03/12 11:19:42;;;;;;;5.80;3.20;;;;;;;17.68;56.43;100729.59;8384227;28;20036;-65
2022/03/12 11:23:42;;;;;;;3.70;2.70;;;;;;;18.07;54.27;100731.16;8414933;28;20089;-63
2022/03/12 11:27:43;;;;;;;5.75;2.72;;;;;;;18.41;53.79;100728.81;8410903;28;20082;-63
2022/03/12 11:31:50;;;;;;;4.05;2.85;;;;;;;18.86;53.80;100717.72;8414748;28;20036;-65
2022/03/12 11:36:01;;;;;;;6.82;3.47;;;;;;;18.61;53.47;100724.53;8406967;28;20131;-65
2022/03/12 11:40:03;;;;;;;5.28;2.40;;;;;;;19.05;52.85;100722.63;8431907;28;20070;-65
2022/03/12 11:44:07;;;;;;;4.20;3.17;;;;;;;19.95;50.66;100725.84;8410624;28;20036;-65
2022/03/12 11:48:08;;;;;;;7.72;3.58;;;;;;;19.37;51.51;100726.88;8420625;28;20062;-63
2022/03/12 11:52:09;;;;;;;8.45;2.88;;;;;;;19.77;52.10;100729.03;8415760;28;20114;-64
2022/03/12 11:56:10;;;;;;;6.75;3.88;;;;;;;19.45;52.25;100726.75;8400520;28;20043;-65
2022/03/12 12:00:20;;;;;;;4.18;3.00;;;;;;;18.39;53.57;100708.97;8411831;28;20055;-65
2022/03/12 12:04:22;;;;;;;8.18;3.53;;;;;;;17.69;55.34;100732.13;8394926;28;20442;-65
2022/03/12 12:08:23;;;;;;;8.98;3.00;;;;;;;17.93;54.83;100723.72;8406089;28;20085;-65
2022/03/12 12:12:27;;;;;;;9.48;3.58;;;;;;;17.80;54.83;100719.91;8414654;28;20169;-65
2022/03/12 12:16:29;;;;;;;4.70;2.92;;;;;;;18.59;53.71;100710.16;8411922;28;20489;-65
2022/03/12 12:20:30;;;;;;;4.85;3.33;;;;;;;19.71;51.52;100701.53;8403881;28;20044;-65
2022/03/12 12:24:33;;;;;;;4.05;2.38;;;;;;;19.61;51.60;100690.03;8414355;28;20035;-65
2022/03/12 12:28:52;;;;;;;10.48;4.00;;;;;;;19.33;52.28;100701.72;8389917;28;20436;-65
2022/03/12 12:32:53;;;;;;;4.53;3.15;;;;;;;18.71;52.58;100703.19;8389493;28;20035;-65
2022/03/12 12:37:02;;;;;;;6.15;3.55;;;;;;;17.92;53.74;100700.16;8405098;28;20040;-65
2022/03/12 12:41:03;;;;;;;4.78;3.00;;;;;;;17.53;55.10;100699.41;8405231;28;20484;-65
2022/03/12 12:45:07;;;;;;;5.82;2.95;;;;;;;18.15;54.57;100706.47;8396920;28;20043;-65
2022/03/12 12:49:08;;;;;;;4.78;3.42;;;;;;;17.77;54.89;100691.03;8405538;28;20072;-65
2022/03/12 12:53:15;;;;;;;5.90;3.03;;;;;;;17.30;55.17;100693.03;8395950;28;20531;-63
2022/03/12 12:57:16;;;;;;;5.20;3.30;;;;;;;17.12;55.57;100695.19;8412911;28;20045;-64
2022/03/12 13:01:19;;;;;;;3.85;2.30;;;;;;;17.36;55.22;100681.38;8383448;28;20132;-64
2022/03/12 13:05:59;;;;;;;5.93;2.65;;;;;;;17.71;54.68;100682.72;8408018;27;20628;-65
2022/03/12 13:10:01;;;;;;;3.65;2.47;;;;;;;17.98;54.96;100682.13;8400992;28;20033;-65
2022/03/12 13:14:08;;;;;;;4.00;2.67;;;;;;;18.06;54.05;100672.00;8403049;28;20564;-65
2022/03/12 13:22:43;;;;;;;5.60;2.75;;;;;;;17.46;54.87;100671.09;8263574;27;1224516;-64
2022/03/12 13:26:44;;;;;;;4.90;2.65;;;;;;;17.52;54.70;100659.44;8297576;28;20163;-64
2022/03/12 13:30:44;;;;;;;4.00;2.53;;;;;;;17.25;54.44;100652.59;8279475;28;20063;-64
2022/03/12 13:34:45;;;;;;;4.55;2.28;;;;;;;17.17;55.36;100657.25;8293958;28;20039;-64
2022/03/12 13:38:46;;;;;;;3.35;2.60;;;;;;;17.39;55.20;100653.69;8299850;28;20459;-63
2022/03/12 13:42:50;;;;;;;3.15;2.35;;;;;;;17.26;54.99;100661.63;8296956;28;20050;-64
2022/03/12 13:46:51;;;;;;;18.27;5.65;;;;;;;17.68;54.73;100659.31;8298167;28;20133;-64
2022/03/12 13:50:56;;;;;;;3.55;2.35;;;;;;;17.51;54.13;100657.75;8295952;28;20491;-64
2022/03/12 13:55:04;;;;;;;4.50;2.88;;;;;;;17.52;54.25;100659.44;8291675;28;20495;-64
2022/03/12 13:59:10;;;;;;;9.35;5.97;;;;;;;17.31;56.02;100651.00;8335035;28;20048;-66
2022/03/12 14:03:12;;;;;;;7.53;5.30;;;;;;;16.91;56.19;100660.28;8317051;28;20046;-65
2022/03/12 14:07:15;;;;;;;9.00;5.32;;;;;;;16.87;56.55;100658.09;8336109;28;20056;-65
2022/03/12 14:11:34;;;;;;;7.60;5.15;;;;;;;16.73;56.30;100653.34;8316076;28;20048;-66
2022/03/12 14:15:35;;;;;;;8.98;5.05;;;;;;;16.98;56.76;100652.22;8323884;28;20049;-66
2022/03/12 14:19:36;;;;;;;18.38;6.28;;;;;;;16.87;56.74;100647.16;8330757;28;20045;-63
2022/03/12 14:23:37;;;;;;;7.45;5.07;;;;;;;16.74;57.23;100663.25;8360955;28;20040;-63
2022/03/12 14:27:38;;;;;;;8.40;5.38;;;;;;;16.48;57.17;100657.19;8352276;28;20041;-63
2022/03/12 14:31:39;;;;;;;9.98;5.97;;;;;;;16.37;57.54;100660.25;8349242;28;20044;-63
2022/03/12 14:35:40;;;;;;;8.50;5.72;;;;;;;16.52;57.31;100650.34;8358599;28;20044;-63
2022/03/12 14:39:43;;;;;;;8.77;5.43;;;;;;;16.47;57.13;100652.78;8328097;28;20119;-63
2022/03/12 14:43:44;;;;;;;8.38;5.97;;;;;;;16.38;57.41;100651.06;8333790;28;20586;-63
2022/03/12 14:47:46;;;;;;;11.45;6.22;;;;;;;16.10;58.07;100657.94;8335726;28;20121;-63
2022/03/12 14:51:50;;;;;;;11.73;6.60;;;;;;;15.88;59.15;100650.44;8338352;28;20132;-63
2022/03/12 14:55:51;;;;;;;;;;;;;;;15.97;59.34;100650.28;8309087;28;20048;-63
2022/03/12 14:59:52;;;;;;;10.23;6.25;;;;;;;15.90;59.64;100651.13;8335766;28;20016;-63
2022/03/12 15:03:53;;;;;;;10.77;6.85;;;;;;;15.77;59.62;100652.50;8334777;28;20053;-63
2022/03/12 15:07:54;;;;;;;12.40;7.30;;;;;;;15.65;59.46;100647.56;8331154;28;20048;-63
2022/03/12 15:12:13;;;;;;;11.45;7.10;;;;;;;15.71;60.07;100635.97;8318894;28;20382;-63
2022/03/12 15:16:22;;;;;;;9.88;6.72;;;;;;;15.70;60.06;100635.13;8341690;28;20036;-63
2022/03/12 15:20:26;;;;;;;10.35;6.43;;;;;;;15.81;59.94;100635.78;8335302;28;20127;-65
2022/03/12 15:24:35;;;;;;;13.35;7.00;;;;;;;15.71;59.26;100627.81;8342273;28;20041;-63
2022/03/12 15:28:37;;;;;;;11.75;7.35;;;;;;;15.74;59.25;100632.91;8333065;28;20045;-63
2022/03/12 15:32:38;;;;;;;10.70;6.55;;;;;;;15.81;59.23;100635.78;8340753;28;20084;-63
2022/03/12 15:36:38;;;;;;;13.90;7.18;;;;;;;15.86;59.47;100638.88;8338434;28;20037;-63
2022/03/12 15:40:42;;;;;;;10.80;7.32;;;;;;;15.89;59.25;100627.63;8312457;28;20686;-63
2022/03/12 15:44:43;;;;;;;11.80;8.05;;;;;;;15.89;59.28;100627.63;8334196;28;20553;-63
2022/03/12 15:48:44;;;;;;;10.90;6.88;;;;;;;15.91;58.73;100626.41;8329119;28;20037;-63
2022/03/12 15:52:47;;;;;;;9.50;6.78;;;;;;;15.80;59.11;100628.66;8344195;28;20029;-63
2022/03/12 15:56:47;;;;;;;14.30;7.55;;;;;;;15.73;58.84;100627.63;8324474;28;20427;-63
2022/03/12 16:00:48;;;;;;;14.73;9.07;;;;;;;15.55;58.39;100617.75;8328795;28;20045;-64
2022/03/12 16:04:49;;;;;;;15.52;9.18;;;;;;;15.32;58.23;100613.97;8330268;28;20041;-63
2022/03/12 16:08:50;;;;;;;15.50;9.43;;;;;;;15.28;57.86;100604.41;8340643;28;20124;-63
2022/03/12 16:12:52;;;;;;;19.50;9.35;;;;;;;15.19;58.25;100607.31;8330567;28;20497;-63
2022/03/12 16:16:54;;;;;;;14.95;8.80;;;;;;;15.06;58.21;100602.31;8324163;28;20041;-63
2022/03/12 16:20:56;;;;;;;19.20;9.65;;;;;;;15.01;58.73;100598.41;8338596;28;20049;-63
2022/03/12 16:24:57;;;;;;;20.77;9.32;;;;;;;15.05;58.26;100603.34;8336800;28;20053;-63
2022/03/12 16:28:57;;;;;;;18.42;9.77;;;;;;;14.97;58.59;100587.00;8332622;28;21202;-63
2022/03/12 16:32:59;;;;;;;13.30;8.70;;;;;;;14.96;58.36;100588.03;8324411;28;20359;-63
2022/03/12 16:37:00;;;;;;;16.98;8.93;;;;;;;14.88;58.43;100585.25;8340250;28;20068;-63
2022/03/12 16:41:01;;;;;;;18.27;9.70;;;;;;;14.75;58.45;100576.72;8327945;28;20128;-63
2022/03/12 16:45:02;;;;;;;17.42;8.85;;;;;;;14.70;58.38;100576.38;8332211;28;20520;-63
2022/03/12 16:49:13;;;;;;;16.85;9.30;;;;;;;14.59;58.55;100576.69;8315778;28;20041;-63
2022/03/12 16:53:15;;;;;;;18.42;9.98;;;;;;;14.47;58.69;100582.59;8328256;28;20037;-63
2022/03/12 16:57:15;;;;;;;15.02;9.98;;;;;;;14.41;58.77;100578.66;8323523;28;20041;-63
2022/03/12 17:01:16;;;;;;;20.30;10.10;;;;;;;14.25;59.19;100578.59;8316286;28;20037;-63
2022/03/12 17:05:17;;;;;;;22.10;10.82;;;;;;;14.18;59.55;100582.09;8326800;28;20037;-63
2022/03/12 17:09:17;;;;;;;14.55;9.30;;;;;;;14.06;59.86;100589.66;8335277;28;20397;-63
2022/03/12 17:13:24;;;;;;;18.83;9.65;;;;;;;13.95;59.97;100587.22;8323971;28;20464;-63
2022/03/12 17:17:25;;;;;;;15.23;9.70;;;;;;;13.83;60.34;100588.50;8318195;28;20892;-63
2022/03/12 17:21:26;;;;;;;19.02;9.68;;;;;;;13.70;60.92;100590.78;8332931;28;20076;-63
2022/03/12 17:25:27;;;;;;;15.18;9.57;;;;;;;13.62;61.00;100593.44;8328022;28;20099;-63
2022/03/12 17:29:28;;;;;;;18.92;9.55;;;;;;;13.62;60.99;100596.16;8312358;28;20094;-63
2022/03/12 17:33:29;;;;;;;17.17;9.25;;;;;;;13.71;60.68;100600.63;8303233;28;20124;-63
2022/03/12 17:37:30;;;;;;;13.20;8.00;;;;;;;13.52;61.41;100589.97;8324283;28;20068;-63
2022/03/12 17:41:31;;;;;;;14.20;8.77;;;;;;;13.47;61.49;100608.59;8329434;28;20494;-63
2022/03/12 17:45:33;;;;;;;16.77;8.75;;;;;;;13.34;61.94;100597.28;8327499;28;20473;-63
2022/03/12 17:49:33;;;;;;;14.70;8.27;;;;;;;13.38;61.49;100595.94;8313158;28;20082;-63
2022/03/12 17:53:34;;;;;;;15.45;8.80;;;;;;;13.28;62.12;100597.91;8313501;28;20032;-63
2022/03/12 17:57:34;;;;;;;17.42;9.30;;;;;;;13.23;62.00;100605.66;8331474;28;20433;-63
2022/03/12 18:01:35;;;;;;;17.23;9.43;;;;;;;13.11;62.33;100606.88;8326155;28;20046;-63
2022/03/12 18:05:38;;;;;;;16.25;9.65;;;;;;;12.96;62.46;100608.41;8330130;28;20041;-63
2022/03/12 18:09:40;;;;;;;17.02;10.30;;;;;;;12.90;62.43;100612.56;8345468;28;20040;-63
2022/03/12 18:13:47;;;;;;;16.42;9.00;;;;;;;12.84;62.51;100610.47;8322131;28;20053;-63
2022/03/12 18:17:48;;;;;;;18.05;10.70;;;;;;;12.76;62.83;100617.69;8330640;28;20064;-63
2022/03/12 18:21:50;;;;;;;18.70;10.25;;;;;;;12.78;62.41;100615.69;8313138;28;20506;-63
2022/03/12 18:25:51;;;;;;;17.90;10.40;;;;;;;12.77;61.93;100611.22;8317333;28;20092;-63
2022/03/12 18:29:51;;;;;;;16.75;10.13;;;;;;;12.73;62.32;100617.97;8329110;28;20049;-63
2022/03/12 18:33:52;;;;;;;18.75;10.98;;;;;;;12.76;62.01;100614.97;8331503;28;20041;-63
2022/03/12 18:37:57;;;;;;;16.10;10.00;;;;;;;12.77;62.08;100613.94;8319956;28;20032;-63
2022/03/12 18:42:00;;;;;;;17.67;11.25;;;;;;;12.73;62.08;100612.56;8343089;28;20065;-63
2022/03/12 18:46:01;;;;;;;20.45;11.00;;;;;;;12.67;62.47;100618.59;8347022;28;20033;-63